Have a Safe July 4th! 

Flight Track Log - Related Links

Times and Time Zones

All times are in EDT time to prevent confusion due to time zone crossing. See the CSH9219 flight status page for this flight to view local times or setup timezone preferences in your user account.

Time Position Orientation Groundspeed Altitude Reporting Facility
EDT Latitude Longitude Course Direction KTS MPH feet Rate Location/Type
Sun 01:14:00 AM 31.7831 120.3546 305° West  Level Estimated
Sun 01:15:00 AM 31.8359 120.2647 305° West  Level Estimated
Sun 01:16:00 AM 31.8887 120.1747 305° West  Level Estimated
Sun 01:17:00 AM 31.9414 120.0847 305° West  Level Estimated
Sun 01:18:00 AM 31.9940 119.9945 305° West  Level Estimated
Sun 01:19:00 AM 32.0466 119.9042 305° West  Level Estimated
Sun 01:20:00 AM 32.0991 119.8138 304° West  Level Estimated
Sun 01:21:00 AM 32.1516 119.7234 304° West  Level Estimated
Sun 01:22:00 AM 32.2039 119.6328 304° West  Level Estimated
Sun 01:23:00 AM 32.2563 119.5421 304° West  Level Estimated
Sun 01:24:00 AM 32.3085 119.4513 304° West  Level Estimated
Sun 01:25:00 AM 32.3607 119.3604 304° West  Level Estimated
Sun 01:26:00 AM 32.4128 119.2694 304° West  Level Estimated
Sun 01:27:00 AM 32.4649 119.1783 304° West  Level Estimated
Sun 01:28:00 AM 32.5169 119.0871 304° West  Level Estimated
Sun 01:29:00 AM 32.5688 118.9957 304° West  Level Estimated
Sun 01:30:00 AM 32.6207 118.9043 304° West  Level Estimated
Sun 01:31:00 AM 32.6725 118.8128 304° West  Level Estimated
Sun 01:32:00 AM 32.7242 118.7211 304° West  Level Estimated
Sun 01:33:00 AM 32.7758 118.6294 304° West  Level Estimated
Sun 01:34:00 AM 32.8274 118.5375 304° West  Level Estimated
Sun 01:35:00 AM 32.8789 118.4456 304° West  Level Estimated
Sun 01:36:00 AM 32.9304 118.3535 304° West  Level Estimated
Sun 01:37:00 AM 32.9818 118.2613 304° West  Level Estimated
Sun 01:38:00 AM 33.0331 118.1691 304° West  Level Estimated
Sun 01:39:00 AM 33.0844 118.0767 304° West  Level Estimated
Sun 01:40:00 AM 33.1356 117.9842 303° West  Level Estimated
Sun 01:41:00 AM 33.1867 117.8916 303° West  Level Estimated
Sun 01:42:00 AM 33.2377 117.7989 303° West  Level Estimated
Sun 01:43:00 AM 33.2887 117.7060 303° West  Level Estimated
Sun 01:44:00 AM 33.3396 117.6131 303° West  Level Estimated
Sun 01:45:00 AM 33.3905 117.5201 303° West  Level Estimated
Sun 01:46:00 AM 33.4412 117.4269 303° West  Level Estimated
Sun 01:47:00 AM 33.4919 117.3337 303° West  Level Estimated
Sun 01:48:00 AM 33.5426 117.2403 303° West  Level Estimated
Sun 01:49:00 AM 33.5931 117.1469 303° West  Level Estimated
Sun 01:50:00 AM 33.6436 117.0533 303° West  Level Estimated
Sun 01:51:00 AM 33.6940 116.9596 303° West  Level Estimated
Sun 01:52:00 AM 33.7444 116.8658 303° West  Level Estimated
Sun 01:53:00 AM 33.7947 116.7719 303° West  Level Estimated
Sun 01:54:00 AM 33.8449 116.6778 303° West  Level Estimated
Sun 01:55:00 AM 33.8950 116.5837 303° West  Level Estimated
Sun 01:56:00 AM 33.9451 116.4895 303° West  Level Estimated
Sun 01:57:00 AM 33.9951 116.3951 303° West  Level Estimated
Sun 01:58:00 AM 34.0450 116.3006 303° West  Level Estimated
Sun 01:59:00 AM 34.0948 116.2061 302° West  Level Estimated
Sun 02:00:00 AM 34.1446 116.1114 302° West  Level Estimated
Sun 02:01:00 AM 34.1943 116.0166 302° West  Level Estimated
Sun 02:02:00 AM 34.2439 115.9217 302° West  Level Estimated
Sun 02:03:00 AM 34.2935 115.8266 302° West  Level Estimated
Sun 02:04:00 AM 34.3430 115.7315 302° West  Level Estimated
Sun 02:05:00 AM 34.3924 115.6363 302° West  Level Estimated
Sun 02:06:00 AM 34.4417 115.5409 302° West  Level Estimated
Sun 02:07:00 AM 34.4910 115.4454 302° West  Level Estimated
Sun 02:08:00 AM 34.5402 115.3498 302° West  Level Estimated
Sun 02:09:00 AM 34.5893 115.2542 302° West  Level Estimated
Sun 02:10:00 AM 34.6383 115.1583 302° West  Level Estimated
Sun 02:11:00 AM 34.6873 115.0624 302° West  Level Estimated
Sun 02:12:00 AM 34.7362 114.9664 302° West  Level Estimated
Sun 02:13:00 AM 34.7850 114.8702 302° West  Level Estimated
Sun 02:14:00 AM 34.8338 114.7739 302° West  Level Estimated
Sun 02:15:00 AM 34.8824 114.6776 302° West  Level Estimated
Sun 02:16:00 AM 34.9310 114.5811 302° West  Level Estimated
Sun 02:17:00 AM 34.9795 114.4845 302° West  Level Estimated
Sun 02:18:00 AM 35.0279 114.3877 301° West  Level Estimated
Sun 02:19:00 AM 35.0763 114.2909 301° West  Level Estimated
Sun 02:20:00 AM 35.1246 114.1940 301° West  Level Estimated
Sun 02:21:00 AM 35.1728 114.0969 301° West  Level Estimated
Sun 02:22:00 AM 35.2209 113.9997 301° West  Level Estimated
Sun 02:23:00 AM 35.2689 113.9024 301° West  Level Estimated
Sun 02:24:00 AM 35.3169 113.8050 301° West  Level Estimated
Sun 02:25:00 AM 35.3648 113.7075 301° West  Level Estimated
Sun 02:26:00 AM 35.4126 113.6098 301° West  Level Estimated
Sun 02:27:00 AM 35.4603 113.5121 301° West  Level Estimated
Sun 02:28:00 AM 35.5080 113.4142 301° West  Level Estimated
Sun 02:29:00 AM 35.5556 113.3162 301° West  Level Estimated
Sun 02:30:00 AM 35.6031 113.2181 301° West  Level Estimated
Sun 02:31:00 AM 35.6505 113.1199 301° West  Level Estimated
Sun 02:32:00 AM 35.6978 113.0215 301° West  Level Estimated
Sun 02:33:00 AM 35.7451 112.9231 301° West  Level Estimated
Sun 02:34:00 AM 35.7922 112.8245 301° West  Level Estimated
Sun 02:35:00 AM 35.8393 112.7258 301° West  Level Estimated
Sun 02:36:00 AM 35.8863 112.6270 300° West  Level Estimated
Sun 02:37:00 AM 35.9333 112.5281 300° West  Level Estimated
Sun 02:38:00 AM 35.9801 112.4290 300° West  Level Estimated
Sun 02:39:00 AM 36.0269 112.3299 300° West  Level Estimated
Sun 02:40:00 AM 36.0736 112.2306 300° West  Level Estimated
Sun 02:41:00 AM 36.1202 112.1312 300° West  Level Estimated
Sun 02:42:00 AM 36.1667 112.0317 300° West  Level Estimated
Sun 02:43:00 AM 36.2132 111.9321 300° West  Level Estimated
Sun 02:44:00 AM 36.2595 111.8323 300° West  Level Estimated
Sun 02:45:00 AM 36.3058 111.7324 300° West  Level Estimated
Sun 02:46:00 AM 36.3520 111.6324 300° West  Level Estimated
Sun 02:47:00 AM 36.3981 111.5323 300° West  Level Estimated
Sun 02:48:00 AM 36.4441 111.4321 300° West  Level Estimated
Sun 02:49:00 AM 36.4901 111.3318 300° West  Level Estimated
Sun 02:50:00 AM 36.5359 111.2313 300° West  Level Estimated
Sun 02:51:00 AM 36.5817 111.1307 300° West  Level Estimated
Sun 02:52:00 AM 36.6274 111.0300 300° West  Level Estimated
Sun 02:53:00 AM 36.6730 110.9292 299° West  Level Estimated
Sun 02:54:00 AM 36.7185 110.8283 299° West  Level Estimated
Sun 02:55:00 AM 36.7639 110.7272 299° West  Level Estimated
Sun 02:56:00 AM 36.8093 110.6260 299° West  Level Estimated
Sun 02:57:00 AM 36.8545 110.5247 299° West  Level Estimated
Sun 02:58:00 AM 36.8997 110.4233 299° West  Level Estimated
Sun 02:59:00 AM 36.9448 110.3218 299° West  Level Estimated
Sun 03:00:00 AM 36.9898 110.2201 299° West  Level Estimated
Sun 03:01:00 AM 37.0347 110.1183 299° West  Level Estimated
Sun 03:02:00 AM 37.0796 110.0164 299° West  Level Estimated
Sun 03:03:00 AM 37.1243 109.9144 299° West  Level Estimated
Sun 03:04:00 AM 37.1690 109.8123 299° West  Level Estimated
Sun 03:05:00 AM 37.2135 109.7100 299° West  Level Estimated
Sun 03:06:00 AM 37.2580 109.6076 299° West  Level Estimated
Sun 03:07:00 AM 37.3024 109.5051 299° West  Level Estimated
Sun 03:08:00 AM 37.3467 109.4025 299° West  Level Estimated
Sun 03:09:00 AM 37.3909 109.2998 298° West  Level Estimated
Sun 03:10:00 AM 37.4350 109.1969 298° West  Level Estimated
Sun 03:11:00 AM 37.4791 109.0939 298° West  Level Estimated
Sun 03:12:00 AM 37.5230 108.9908 298° West  Level Estimated
Sun 03:13:00 AM 37.5669 108.8876 298° West  Level Estimated
Sun 03:14:00 AM 37.6106 108.7842 298° West  Level Estimated
Sun 03:15:00 AM 37.6543 108.6807 298° West  Level Estimated
Sun 03:16:00 AM 37.6979 108.5771 298° West  Level Estimated
Sun 03:17:00 AM 37.7414 108.4734 298° West  Level Estimated
Sun 03:18:00 AM 37.7848 108.3696 298° West  Level Estimated
Sun 03:19:00 AM 37.8281 108.2656 298° West  Level Estimated
Sun 03:20:00 AM 37.8713 108.1616 298° West  Level Estimated
Sun 03:21:00 AM 37.9145 108.0574 298° West  Level Estimated
Sun 03:22:00 AM 37.9575 107.9530 298° West  Level Estimated
Sun 03:23:00 AM 38.0004 107.8486 298° West  Level Estimated
Sun 03:24:00 AM 38.0433 107.7440 298° West  Level Estimated
Sun 03:25:00 AM 38.0860 107.6393 297° West  Level Estimated
Sun 03:26:00 AM 38.1287 107.5345 297° West  Level Estimated
Sun 03:27:00 AM 38.1713 107.4296 297° West  Level Estimated
Sun 03:28:00 AM 38.2138 107.3245 297° West  Level Estimated
Sun 03:29:00 AM 38.2562 107.2193 297° West  Level Estimated
Sun 03:30:00 AM 38.2985 107.1140 297° West  Level Estimated
Sun 03:31:00 AM 38.3406 107.0086 297° West  Level Estimated
Sun 03:32:00 AM 38.3828 106.9030 297° West  Level Estimated
Sun 03:33:00 AM 38.4248 106.7973 297° West  Level Estimated
Sun 03:34:00 AM 38.4667 106.6916 297° West  Level Estimated
Sun 03:35:00 AM 38.5085 106.5856 297° West  Level Estimated
Sun 03:36:00 AM 38.5502 106.4796 297° West  Level Estimated
Sun 03:37:00 AM 38.5918 106.3734 297° West  Level Estimated
Sun 03:38:00 AM 38.6334 106.2671 297° West  Level Estimated
Sun 03:39:00 AM 38.6748 106.1607 297° West  Level Estimated
Sun 03:40:00 AM 38.7161 106.0542 296° West  Level Estimated
Sun 03:41:00 AM 38.7574 105.9475 296° West  Level Estimated
Sun 03:42:00 AM 38.7985 105.8408 296° West  Level Estimated
Sun 03:43:00 AM 38.8396 105.7338 296° West  Level Estimated
Sun 03:44:00 AM 38.8805 105.6268 296° West  Level Estimated
Sun 03:45:00 AM 38.9214 105.5197 296° West  Level Estimated
Sun 03:46:00 AM 38.9621 105.4124 296° West  Level Estimated
Sun 03:47:00 AM 39.0028 105.3050 296° West  Level Estimated
Sun 03:48:00 AM 39.0434 105.1975 296° West  Level Estimated
Sun 03:49:00 AM 39.0838 105.0898 296° West  Level Estimated
Sun 03:50:00 AM 39.1242 104.9821 296° West  Level Estimated
Sun 03:51:00 AM 39.1644 104.8742 296° West  Level Estimated
Sun 03:52:00 AM 39.2046 104.7662 296° West  Level Estimated
Sun 03:53:00 AM 39.2446 104.6580 296° West  Level Estimated
Sun 03:54:00 AM 39.2846 104.5498 296° West  Level Estimated
Sun 03:55:00 AM 39.3245 104.4414 295° West  Level Estimated
Sun 03:56:00 AM 39.3642 104.3329 295° West  Level Estimated
Sun 03:57:00 AM 39.4039 104.2242 295° West  Level Estimated
Sun 03:58:00 AM 39.4434 104.1155 295° West  Level Estimated
Sun 03:59:00 AM 39.4829 104.0066 295° West  Level Estimated
Sun 04:00:00 AM 39.5223 103.8976 295° West  Level Estimated
Sun 04:01:00 AM 39.5615 103.7885 295° West  Level Estimated
Sun 04:02:00 AM 39.6007 103.6792 295° West  Level Estimated
Sun 04:03:00 AM 39.6397 103.5698 295° West  Level Estimated
Sun 04:04:00 AM 39.6786 103.4604 295° West  Level Estimated
Sun 04:05:00 AM 39.7175 103.3507 295° West  Level Estimated
Sun 04:06:00 AM 39.7562 103.2410 295° West  Level Estimated
Sun 04:07:00 AM 39.7949 103.1311 295° West  Level Estimated
Sun 04:08:00 AM 39.8334 103.0211 295° West  Level Estimated
Sun 04:09:00 AM 39.8718 102.9110 294° West  Level Estimated
Sun 04:10:00 AM 39.9101 102.8008 294° West  Level Estimated
Sun 04:11:00 AM 39.9484 102.6904 294° West  Level Estimated
Sun 04:12:00 AM 39.9865 102.5799 294° West  Level Estimated
Sun 04:13:00 AM 40.0245 102.4693 294° West  Level Estimated
Sun 04:14:00 AM 40.0624 102.3586 294° West  Level Estimated
Sun 04:15:00 AM 40.1002 102.2477 294° West  Level Estimated
Sun 04:16:00 AM 40.1379 102.1368 294° West  Level Estimated
Sun 04:17:00 AM 40.1755 102.0257 294° West  Level Estimated
Sun 04:18:00 AM 40.2129 101.9145 294° West  Level Estimated
Sun 04:19:00 AM 40.2503 101.8031 294° West  Level Estimated
Sun 04:20:00 AM 40.2876 101.6917 294° West  Level Estimated
Sun 04:21:00 AM 40.3247 101.5801 294° West  Level Estimated
Sun 04:22:00 AM 40.3618 101.4683 294° West  Level Estimated
Sun 04:23:00 AM 40.3987 101.3565 293° West  Level Estimated
Sun 04:24:00 AM 40.4356 101.2446 293° West  Level Estimated
Sun 04:25:00 AM 40.4723 101.1325 293° West  Level Estimated
Sun 04:26:00 AM 40.5089 101.0203 293° West  Level Estimated
Sun 04:27:00 AM 40.5454 100.9079 293° West  Level Estimated
Sun 04:28:00 AM 40.5818 100.7955 293° West  Level Estimated
Sun 04:29:00 AM 40.6181 100.6829 293° West  Level Estimated
Sun 04:30:00 AM 40.6543 100.5702 293° West  Level Estimated
Sun 04:31:00 AM 40.6904 100.4574 293° West  Level Estimated
Sun 04:32:00 AM 40.7263 100.3445 293° West  Level Estimated
Sun 04:33:00 AM 40.7622 100.2314 293° West  Level Estimated
Sun 04:34:00 AM 40.7980 100.1182 293° West  Level Estimated
Sun 04:35:00 AM 40.8336 100.0049 293° West  Level Estimated
Sun 04:36:00 AM 40.8691 99.8915 293° West  Level Estimated
Sun 04:37:00 AM 40.9045 99.7780 292° West  Level Estimated
Sun 04:38:00 AM 40.9398 99.6643 292° West  Level Estimated
Sun 04:39:00 AM 40.9750 99.5505 292° West  Level Estimated
Sun 04:40:00 AM 41.0101 99.4366 292° West  Level Estimated
Sun 04:41:00 AM 41.0450 99.3226 292° West  Level Estimated
Sun 04:42:00 AM 41.0799 99.2084 292° West  Level Estimated
Sun 04:43:00 AM 41.1146 99.0942 292° West  Level Estimated
Sun 04:44:00 AM 41.1493 98.9798 292° West  Level Estimated
Sun 04:45:00 AM 41.1838 98.8652 292° West  Level Estimated
Sun 04:46:00 AM 41.2182 98.7506 292° West  Level Estimated
Sun 04:47:00 AM 41.2524 98.6359 292° West  Level Estimated
Sun 04:48:00 AM 41.2866 98.5210 292° West  Level Estimated
Sun 04:49:00 AM 41.3207 98.4060 292° West  Level Estimated
Sun 04:50:00 AM 41.3546 98.2909 291° West  Level Estimated
Sun 04:51:00 AM 41.3885 98.1756 291° West  Level Estimated
Sun 04:52:00 AM 41.4222 98.0603 291° West  Level Estimated
Sun 04:53:00 AM 41.4558 97.9448 291° West  Level Estimated
Sun 04:54:00 AM 41.4892 97.8292 291° West  Level Estimated
Sun 04:55:00 AM 41.5226 97.7135 291° West  Level Estimated
Sun 04:56:00 AM 41.5559 97.5977 291° West  Level Estimated
Sun 04:57:00 AM 41.5890 97.4817 291° West  Level Estimated
Sun 04:58:00 AM 41.6220 97.3656 291° West  Level Estimated
Sun 04:59:00 AM 41.6549 97.2495 291° West  Level Estimated
Sun 05:00:00 AM 41.6877 97.1332 291° West  Level Estimated
Sun 05:01:00 AM 41.7203 97.0167 291° West  Level Estimated
Sun 05:02:00 AM 41.7529 96.9002 291° West  Level Estimated
Sun 05:03:00 AM 41.7853 96.7835 290° West  Level Estimated
Sun 05:04:00 AM 41.8176 96.6667 290° West  Level Estimated
Sun 05:05:00 AM 41.8498 96.5499 290° West  Level Estimated
Sun 05:06:00 AM 41.8819 96.4328 290° West  Level Estimated
Sun 05:07:00 AM 41.9138 96.3157 290° West  Level Estimated
Sun 05:08:00 AM 41.9457 96.1984 290° West  Level Estimated
Sun 05:09:00 AM 41.9774 96.0811 290° West  Level Estimated
Sun 05:10:00 AM 42.0090 95.9636 290° West  Level Estimated
Sun 05:11:00 AM 42.0405 95.8460 290° West  Level Estimated
Sun 05:12:00 AM 42.0718 95.7283 290° West  Level Estimated
Sun 05:13:00 AM 42.1031 95.6105 290° West  Level Estimated
Sun 05:14:00 AM 42.1342 95.4925 290° West  Level Estimated
Sun 05:15:00 AM 42.1652 95.3744 290° West  Level Estimated
Sun 05:16:00 AM 42.1961 95.2563 289° West  Level Estimated
Sun 05:17:00 AM 42.2268 95.1380 289° West  Level Estimated
Sun 05:18:00 AM 42.2574 95.0195 289° West  Level Estimated
Sun 05:19:00 AM 42.2879 94.9010 289° West  Level Estimated
Sun 05:20:00 AM 42.3183 94.7824 289° West  Level Estimated
Sun 05:21:00 AM 42.3486 94.6636 289° West  Level Estimated
Sun 05:22:00 AM 42.3787 94.5448 289° West  Level Estimated
Sun 05:23:00 AM 42.4088 94.4258 289° West  Level Estimated
Sun 05:24:00 AM 42.4386 94.3067 289° West  Level Estimated
Sun 05:25:00 AM 42.4684 94.1875 289° West  Level Estimated
Sun 05:26:00 AM 42.4981 94.0682 289° West  Level Estimated
Sun 05:27:00 AM 42.5276 93.9487 289° West  Level Estimated
Sun 05:28:00 AM 42.5570 93.8292 288° West  Level Estimated
Sun 05:29:00 AM 42.5863 93.7095 288° West  Level Estimated
Sun 05:30:00 AM 42.6154 93.5897 288° West  Level Estimated
Sun 05:31:00 AM 42.6445 93.4699 288° West  Level Estimated
Sun 05:32:00 AM 42.6734 93.3499 288° West  Level Estimated
Sun 05:33:00 AM 42.7021 93.2298 288° West  Level Estimated
Sun 05:34:00 AM 42.7308 93.1095 288° West  Level Estimated
Sun 05:35:00 AM 42.7593 92.9892 288° West  Level Estimated
Sun 05:36:00 AM 42.7877 92.8688 288° West  Level Estimated
Sun 05:37:00 AM 42.8160 92.7482 288° West  Level Estimated
Sun 05:38:00 AM 42.8441 92.6275 288° West  Level Estimated
Sun 05:39:00 AM 42.8721 92.5068 288° West  Level Estimated
Sun 05:40:00 AM 42.9000 92.3859 288° West  Level Estimated
Sun 05:41:00 AM 42.9278 92.2649 287° West  Level Estimated
Sun 05:42:00 AM 42.9554 92.1438 287° West  Level Estimated
Sun 05:43:00 AM 42.9829 92.0226 287° West  Level Estimated
Sun 05:44:00 AM 43.0103 91.9013 287° West  Level Estimated
Sun 05:45:00 AM 43.0376 91.7799 287° West  Level Estimated
Sun 05:46:00 AM 43.0647 91.6583 287° West  Level Estimated
Sun 05:47:00 AM 43.0917 91.5367 287° West  Level Estimated
Sun 05:48:00 AM 43.1186 91.4150 287° West  Level Estimated
Sun 05:49:00 AM 43.1453 91.2931 287° West  Level Estimated
Sun 05:50:00 AM 43.1719 91.1712 287° West  Level Estimated
Sun 05:51:00 AM 43.1984 91.0491 287° West  Level Estimated
Sun 05:52:00 AM 43.2247 90.9269 287° West  Level Estimated
Sun 05:53:00 AM 43.2509 90.8046 286° West  Level Estimated
Sun 05:54:00 AM 43.2770 90.6823 286° West  Level Estimated
Sun 05:55:00 AM 43.3030 90.5598 286° West  Level Estimated
Sun 05:56:00 AM 43.3288 90.4372 286° West  Level Estimated
Sun 05:57:00 AM 43.3545 90.3145 286° West  Level Estimated
Sun 05:58:00 AM 43.3801 90.1917 286° West  Level Estimated
Sun 05:59:00 AM 43.4055 90.0688 286° West  Level Estimated
Sun 06:00:00 AM 43.4308 89.9458 286° West  Level Estimated
Sun 06:01:00 AM 43.4560 89.8227 286° West  Level Estimated
Sun 06:02:00 AM 43.4810 89.6995 286° West  Level Estimated
Sun 06:03:00 AM 43.5059 89.5762 286° West  Level Estimated
Sun 06:04:00 AM 43.5307 89.4528 286° West  Level Estimated
Sun 06:05:00 AM 43.5553 89.3292 285° West  Level Estimated
Sun 06:06:00 AM 43.5798 89.2056 285° West  Level Estimated
Sun 06:07:00 AM 43.6042 89.0819 285° West  Level Estimated
Sun 06:08:00 AM 43.6284 88.9581 285° West  Level Estimated
Sun 06:09:00 AM 43.6526 88.8342 285° West  Level Estimated
Sun 06:10:00 AM 43.6765 88.7102 285° West  Level Estimated
Sun 06:11:00 AM 43.7004 88.5861 285° West  Level Estimated
Sun 06:12:00 AM 43.7241 88.4619 285° West  Level Estimated
Sun 06:13:00 AM 43.7476 88.3375 285° West  Level Estimated
Sun 06:14:00 AM 43.7711 88.2132 285° West  Level Estimated
Sun 06:15:00 AM 43.7944 88.0886 285° West  Level Estimated
Sun 06:16:00 AM 43.8175 87.9640 284° West  Level Estimated
Sun 06:17:00 AM 43.8406 87.8393 284° West  Level Estimated
Sun 06:18:00 AM 43.8634 87.7146 284° West  Level Estimated
Sun 06:19:00 AM 43.8862 87.5897 284° West  Level Estimated
Sun 06:20:00 AM 43.9071 87.4742 284° West  Level Estimated
Sun 06:21:00 AM 43.9071 87.4742 North  Level Estimated
Sun 06:22:00 AM 43.9071 87.4742 North  Level Estimated
Sun 06:23:00 AM 43.9071 87.4742 North  Level Estimated
Sun 06:24:00 AM 43.9071 87.4742 North  Level Estimated
Sun 06:25:00 AM 43.9071 87.4742 North  Level Estimated
Sun 06:26:00 AM 43.9071 87.4742 North  Level Estimated
Sun 06:27:00 AM 43.9071 87.4742 North  Level Estimated
Sun 06:28:00 AM 43.9071 87.4742 North  Level Estimated
Sun 06:29:00 AM 43.9071 87.4742 North  Level Estimated
Sun 06:30:00 AM 43.9071 87.4742 North  Level Estimated
Sun 06:31:00 AM 43.9071 87.4742 North  Level Estimated
Sun 06:32:00 AM 43.9071 87.4742 North  Level Estimated
Sun 06:33:00 AM 43.9071 87.4742 North  Level Estimated
Sun 06:34:00 AM 43.9071 87.4742 North  Level Estimated
Sun 06:35:00 AM 43.9071 87.4742 North  Level Estimated
Sun 06:36:00 AM 43.9071 87.4742 North  Level Estimated

Login

Don't have an account? Register now (free) for customized features, flight alerts, and more!